createdAt,value
2019-03-24T00:00:30.610Z,10.10
2019-03-24T00:03:02.043Z,8.83
2019-03-24T00:05:33.500Z,8.53
2019-03-24T00:08:04.919Z,7.77
2019-03-24T00:10:36.328Z,7.53
2019-03-24T00:13:09.280Z,8.57
2019-03-24T00:15:42.364Z,7.90
2019-03-24T00:18:13.832Z,7.20
2019-03-24T00:20:45.147Z,6.83
2019-03-24T00:23:16.489Z,7.60
2019-03-24T00:25:48.124Z,6.87
2019-03-24T00:28:19.462Z,6.80
2019-03-24T00:30:50.871Z,7.90
2019-03-24T00:33:22.376Z,7.37
2019-03-24T00:35:53.748Z,6.93
2019-03-24T00:38:25.085Z,7.03
2019-03-24T00:40:57.194Z,6.97
2019-03-24T00:43:28.520Z,8.27
2019-03-24T00:45:59.714Z,7.77
2019-03-24T00:48:31.046Z,8.33
2019-03-24T00:51:03.303Z,8.57
2019-03-24T00:53:34.682Z,7.53
2019-03-24T00:56:07.590Z,7.70
2019-03-24T00:58:39.009Z,6.87
2019-03-24T01:01:10.395Z,6.90
2019-03-24T01:03:41.783Z,7.00
2019-03-24T01:06:13.346Z,6.33
2019-03-24T01:08:44.658Z,6.53
2019-03-24T01:11:16.119Z,6.90
2019-03-24T01:13:47.421Z,8.00
2019-03-24T01:16:21.389Z,6.67
2019-03-24T01:18:52.745Z,6.60
2019-03-24T01:21:25.789Z,6.63
2019-03-24T01:23:57.218Z,6.23
2019-03-24T01:26:28.623Z,6.77
2019-03-24T01:28:59.991Z,6.23
2019-03-24T01:31:31.577Z,8.47
2019-03-24T01:34:02.986Z,6.13
2019-03-24T01:36:34.503Z,6.40
2019-03-24T01:39:07.367Z,5.20
2019-03-24T01:41:38.735Z,6.40
2019-03-24T01:44:11.685Z,6.10
2019-03-24T01:46:43.067Z,6.07
2019-03-24T01:49:14.523Z,6.70
2019-03-24T02:10:47.996Z,6.80
2019-03-24T02:13:19.515Z,7.23
2019-03-24T02:15:51.668Z,6.73
2019-03-24T02:18:23.341Z,6.87
2019-03-24T02:20:55.743Z,7.17
2019-03-24T02:23:27.028Z,6.10
2019-03-24T02:25:58.340Z,6.70
2019-03-24T02:28:29.626Z,7.10
2019-03-24T02:31:00.907Z,7.03
2019-03-24T02:33:32.269Z,7.27
2019-03-24T02:36:03.520Z,6.37
2019-03-24T02:38:34.842Z,6.57
2019-03-24T02:41:06.090Z,6.50
2019-03-24T02:43:37.416Z,6.90
2019-03-24T02:46:08.748Z,7.03
2019-03-24T02:48:41.253Z,7.23
2019-03-24T02:51:12.587Z,6.43
2019-03-24T02:53:44.041Z,6.03
2019-03-24T02:56:15.387Z,6.63
2019-03-24T02:58:48.273Z,6.20
2019-03-24T03:01:19.545Z,5.07
2019-03-24T03:03:51.137Z,5.37
2019-03-24T03:06:23.205Z,5.70
2019-03-24T03:08:56.070Z,6.23
2019-03-24T03:11:28.583Z,5.87
2019-03-24T03:14:00.080Z,6.07
2019-03-24T03:16:38.198Z,6.23
2019-03-24T03:19:04.297Z,6.23
2019-03-24T03:21:35.654Z,4.90
2019-03-24T03:24:07.092Z,6.50
2019-03-24T03:26:38.308Z,5.83
2019-03-24T03:29:09.631Z,5.20
2019-03-24T03:31:43.984Z,5.23
2019-03-24T03:34:15.307Z,5.47
2019-03-24T03:36:46.595Z,5.93
2019-03-24T03:39:17.935Z,6.40
2019-03-24T03:41:49.290Z,5.53
2019-03-24T03:44:21.816Z,6.50
2019-03-24T03:46:53.510Z,6.30
2019-03-24T03:49:24.966Z,6.23
2019-03-24T03:51:56.303Z,6.20
2019-03-24T03:54:27.743Z,6.30
2019-03-24T03:57:00.626Z,6.57
2019-03-24T03:59:33.664Z,5.97
2019-03-24T04:02:05.617Z,6.70
2019-03-24T04:04:37.449Z,7.40
2019-03-24T04:07:08.788Z,6.70
2019-03-24T04:09:40.194Z,6.77
2019-03-24T04:12:11.545Z,5.80
2019-03-24T04:14:43.941Z,6.93
2019-03-24T04:17:15.166Z,6.40
2019-03-24T04:19:46.490Z,6.53
2019-03-24T04:22:20.197Z,6.53
2019-03-24T04:24:51.942Z,6.87
2019-03-24T04:27:23.230Z,7.07
2019-03-24T04:29:54.564Z,6.67
2019-03-24T04:32:25.784Z,6.43
2019-03-24T04:34:57.080Z,6.47
2019-03-24T04:37:28.402Z,6.97
2019-03-24T04:39:59.766Z,7.50
2019-03-24T04:42:31.004Z,6.67
2019-03-24T04:45:02.467Z,6.73
2019-03-24T04:47:33.813Z,7.23
2019-03-24T04:50:05.685Z,7.30
2019-03-24T04:52:37.036Z,7.93
2019-03-24T04:55:09.426Z,8.13
2019-03-24T04:57:40.830Z,7.30
2019-03-24T05:00:12.836Z,7.23
2019-03-24T05:02:44.239Z,6.97
2019-03-24T05:05:15.596Z,7.97
2019-03-24T05:07:47.271Z,7.47
2019-03-24T05:10:28.030Z,6.43
2019-03-24T05:12:59.372Z,7.00
2019-03-24T05:15:31.476Z,7.03
2019-03-24T05:18:02.815Z,7.13
2019-03-24T05:20:35.201Z,7.30
2019-03-24T05:23:07.645Z,6.80
2019-03-24T05:25:39.701Z,6.23
2019-03-24T05:28:11.086Z,7.07
2019-03-24T05:30:42.509Z,7.67
2019-03-24T05:33:13.860Z,7.33
2019-03-24T05:35:45.222Z,7.20
2019-03-24T05:38:16.737Z,7.53
2019-03-24T05:40:48.042Z,7.20
2019-03-24T05:43:19.246Z,6.63
2019-03-24T05:45:50.575Z,7.53
2019-03-24T05:48:21.877Z,6.93
2019-03-24T05:50:54.520Z,6.93
2019-03-24T05:53:25.847Z,6.77
2019-03-24T05:55:57.105Z,7.03
2019-03-24T05:58:30.005Z,7.30
2019-03-24T06:01:01.290Z,7.20
2019-03-24T06:03:43.825Z,7.50
2019-03-24T06:06:15.167Z,8.63
2019-03-24T06:08:46.463Z,8.97
2019-03-24T06:11:17.695Z,8.70
2019-03-24T06:13:48.971Z,7.87
2019-03-24T06:16:20.594Z,7.13
2019-03-24T06:18:51.886Z,7.77
2019-03-24T06:21:23.202Z,7.57
2019-03-24T06:23:54.581Z,7.40
2019-03-24T06:26:25.815Z,7.93
2019-03-24T06:28:57.125Z,7.17
2019-03-24T06:31:40.099Z,8.20
2019-03-24T06:34:11.310Z,8.10
2019-03-24T06:36:42.650Z,8.47
2019-03-24T06:39:13.948Z,8.07
2019-03-24T06:41:45.270Z,7.43
2019-03-24T06:44:16.531Z,7.13
2019-03-24T06:46:49.122Z,8.80
2019-03-24T06:49:20.406Z,7.67
2019-03-24T06:51:52.113Z,8.03
2019-03-24T06:54:23.729Z,8.37
2019-03-24T06:56:54.993Z,8.90
2019-03-24T06:59:26.307Z,8.33
2019-03-24T07:01:57.612Z,8.33
2019-03-24T07:04:28.975Z,8.70
2019-03-24T07:07:00.298Z,8.43
2019-03-24T07:09:31.593Z,9.60
2019-03-24T07:12:03.451Z,9.00
2019-03-24T07:14:34.750Z,8.80
2019-03-24T07:17:06.766Z,8.30
2019-03-24T07:19:38.215Z,7.53
2019-03-24T07:22:09.522Z,8.40
2019-03-24T07:24:40.814Z,8.10
2019-03-24T07:27:12.204Z,6.80
2019-03-24T07:29:43.605Z,8.30
2019-03-24T07:32:15.203Z,7.97
2019-03-24T07:34:47.557Z,5.87
2019-03-24T07:37:19.004Z,5.50
2019-03-24T07:39:50.530Z,5.33
2019-03-24T07:42:21.949Z,5.90
2019-03-24T07:44:53.282Z,5.80
2019-03-24T07:47:24.563Z,5.13
2019-03-24T07:49:56.953Z,5.30
2019-03-24T07:52:28.253Z,3.50
2019-03-24T07:54:59.726Z,4.00
2019-03-24T07:57:31.050Z,4.00
2019-03-24T08:00:02.349Z,3.67
2019-03-24T08:02:33.696Z,3.87
2019-03-24T08:05:05.686Z,4.47
2019-03-24T08:07:36.996Z,4.10
2019-03-24T08:10:08.991Z,3.60
2019-03-24T08:12:42.430Z,3.37
2019-03-24T08:15:16.331Z,3.20
2019-03-24T08:17:48.235Z,3.87
2019-03-24T08:20:23.550Z,3.07
2019-03-24T08:22:54.862Z,3.40
2019-03-24T08:25:27.576Z,2.70
2019-03-24T08:27:59.185Z,4.00
2019-03-24T08:30:36.910Z,3.30
2019-03-24T08:33:09.318Z,3.27
2019-03-24T08:35:43.645Z,3.40
2019-03-24T08:38:16.079Z,3.70
2019-03-24T08:40:47.354Z,3.67
2019-03-24T08:43:18.725Z,3.20
2019-03-24T08:45:50.056Z,2.83
2019-03-24T08:48:21.478Z,2.87
2019-03-24T08:50:53.853Z,3.40
2019-03-24T08:53:25.149Z,3.57
2019-03-24T08:55:56.558Z,2.60
2019-03-24T08:58:27.947Z,3.13
2019-03-24T09:00:59.963Z,2.67
2019-03-24T09:03:32.618Z,3.10
2019-03-24T09:06:04.214Z,2.47
2019-03-24T09:08:35.524Z,2.50
2019-03-24T09:11:06.958Z,3.00
2019-03-24T09:13:38.302Z,2.77
2019-03-24T09:16:09.586Z,3.80
2019-03-24T09:18:51.788Z,2.60
2019-03-24T09:21:16.254Z,3.13
2019-03-24T09:23:47.598Z,2.67
2019-03-24T09:26:20.596Z,2.93
2019-03-24T09:28:53.700Z,2.90
2019-03-24T09:31:25.099Z,2.83
2019-03-24T09:33:56.531Z,2.67
2019-03-24T09:36:31.030Z,3.30
2019-03-24T09:39:02.485Z,2.93
2019-03-24T09:41:33.946Z,2.70
2019-03-24T09:44:05.311Z,3.47
2019-03-24T09:46:44.037Z,2.63
2019-03-24T09:49:15.430Z,3.33
2019-03-24T09:51:48.487Z,2.23
2019-03-24T09:54:19.935Z,2.37
2019-03-24T09:56:53.672Z,3.23
2019-03-24T09:59:25.241Z,2.90
2019-03-24T10:01:56.552Z,2.80
2019-03-24T10:04:32.042Z,3.33
2019-03-24T10:07:04.541Z,2.83
2019-03-24T10:09:40.576Z,3.27
2019-03-24T10:12:12.031Z,3.17
2019-03-24T10:14:48.019Z,3.13
2019-03-24T10:17:25.488Z,3.07
2019-03-24T10:19:56.858Z,2.80
2019-03-24T10:22:34.862Z,3.07
2019-03-24T10:25:10.653Z,3.17
2019-03-24T10:27:50.947Z,3.30
2019-03-24T10:30:22.399Z,2.93
2019-03-24T10:32:55.841Z,4.60
2019-03-24T10:35:30.523Z,3.57
2019-03-24T10:38:04.013Z,3.23
2019-03-24T10:40:35.954Z,3.37
2019-03-24T10:43:08.974Z,3.07
2019-03-24T10:45:44.240Z,3.10
2019-03-24T10:48:16.237Z,2.60
2019-03-24T10:50:48.640Z,2.73
2019-03-24T10:53:22.555Z,3.03
2019-03-24T10:55:54.739Z,2.60
2019-03-24T10:58:26.335Z,2.90
2019-03-24T11:00:58.994Z,3.10
2019-03-24T11:03:34.990Z,3.07
2019-03-24T11:06:07.216Z,2.80
2019-03-24T11:08:39.965Z,3.43
2019-03-24T11:11:19.091Z,3.40
2019-03-24T11:13:50.776Z,3.33
2019-03-24T11:16:23.347Z,3.47
2019-03-24T11:18:57.394Z,3.20
2019-03-24T11:21:29.865Z,3.50
2019-03-24T11:24:01.326Z,4.43
2019-03-24T11:26:32.721Z,3.50
2019-03-24T11:29:05.915Z,3.77
2019-03-24T11:31:37.447Z,3.93
2019-03-24T11:34:10.148Z,3.43
2019-03-24T11:36:41.505Z,3.57
2019-03-24T11:39:14.050Z,3.40
2019-03-24T11:41:45.735Z,3.60
2019-03-24T11:44:17.079Z,4.00
2019-03-24T11:46:48.371Z,3.47
2019-03-24T11:54:52.410Z,4.63
2019-03-24T11:57:35.741Z,5.70
2019-03-24T12:00:21.252Z,5.40
2019-03-24T12:02:52.627Z,5.10
2019-03-24T12:05:27.190Z,5.20
2019-03-24T12:07:58.520Z,5.53
2019-03-24T12:10:31.644Z,6.37
2019-03-24T12:13:05.317Z,4.60
2019-03-24T12:15:37.233Z,5.23
2019-03-24T12:18:09.821Z,7.07
2019-03-24T12:20:42.171Z,5.30
2019-03-24T12:23:13.891Z,5.73
2019-03-24T12:25:47.030Z,4.27
2019-03-24T12:28:20.140Z,5.00
2019-03-24T12:30:52.762Z,4.67
2019-03-24T12:33:26.525Z,4.80
2019-03-24T12:35:58.538Z,4.37
2019-03-24T12:38:30.158Z,4.47
2019-03-24T12:41:01.600Z,4.30
2019-03-24T12:43:33.380Z,4.70
2019-03-24T12:46:09.712Z,5.53
2019-03-24T12:48:41.729Z,5.40
2019-03-24T12:51:13.035Z,5.60
2019-03-24T12:53:45.042Z,5.77
2019-03-24T12:58:10.508Z,6.10
2019-03-24T13:01:03.525Z,4.80
2019-03-24T13:03:36.308Z,4.10
2019-03-24T13:06:11.341Z,4.00
2019-03-24T13:08:42.807Z,3.80
2019-03-24T13:11:14.275Z,3.67
2019-03-24T13:13:46.457Z,4.33
2019-03-24T13:16:17.819Z,3.50
2019-03-24T13:18:50.950Z,3.57
2019-03-24T13:21:26.004Z,2.70
2019-03-24T13:23:59.177Z,2.80
2019-03-24T13:26:36.098Z,3.00
2019-03-24T13:29:07.574Z,2.80
2019-03-24T13:31:39.905Z,2.10
2019-03-24T13:34:13.736Z,2.90
2019-03-24T13:36:46.377Z,2.57
2019-03-24T13:39:18.824Z,2.40
2019-03-24T13:41:51.646Z,2.90
2019-03-24T13:44:27.253Z,2.20
2019-03-24T13:47:01.129Z,2.70
2019-03-24T13:49:33.023Z,2.03
2019-03-24T13:52:05.975Z,2.23
2019-03-24T13:54:37.410Z,2.07
2019-03-24T13:57:10.391Z,2.23
2019-03-24T13:59:41.914Z,2.03
2019-03-24T14:02:14.940Z,1.73
2019-03-24T14:04:47.705Z,1.57
2019-03-24T14:07:21.415Z,1.60
2019-03-24T14:09:53.825Z,1.90
2019-03-24T14:12:27.985Z,2.13
2019-03-24T14:14:59.365Z,2.43
2019-03-24T14:17:31.810Z,2.23
2019-03-24T14:20:03.328Z,2.10
2019-03-24T14:22:37.158Z,2.10
2019-03-24T14:25:09.864Z,2.70
2019-03-24T14:27:43.365Z,1.57
2019-03-24T14:30:19.891Z,2.53
2019-03-24T14:32:52.168Z,2.10
2019-03-24T14:35:25.477Z,1.87
2019-03-24T14:38:01.977Z,1.80
2019-03-24T14:40:37.071Z,2.00
2019-03-24T14:43:08.508Z,1.73
2019-03-24T14:45:43.901Z,1.80
2019-03-24T14:48:18.171Z,1.90
2019-03-24T14:50:54.401Z,2.07
2019-03-24T14:53:24.293Z,1.80
2019-03-24T14:55:57.247Z,2.13
2019-03-24T14:58:28.584Z,1.50
2019-03-24T15:01:02.543Z,1.70
2019-03-24T15:03:38.578Z,1.60
2019-03-24T15:06:12.477Z,2.07
2019-03-24T15:08:44.193Z,2.07
2019-03-24T15:11:15.651Z,2.40
2019-03-24T15:13:47.003Z,1.70
2019-03-24T15:16:19.058Z,2.20
2019-03-24T15:18:52.013Z,2.00
2019-03-24T15:21:25.461Z,1.80
2019-03-24T15:23:58.798Z,2.00
2019-03-24T15:26:35.015Z,2.00
2019-03-24T15:29:13.542Z,2.00
2019-03-24T15:31:48.606Z,2.20
2019-03-24T15:34:20.034Z,2.30
2019-03-24T15:36:51.413Z,1.70
2019-03-24T15:39:26.783Z,2.07
2019-03-24T15:41:59.487Z,1.87
2019-03-24T15:44:35.819Z,2.13
2019-03-24T15:47:09.607Z,2.43
2019-03-24T15:49:41.178Z,2.50
2019-03-24T15:52:14.367Z,2.20
2019-03-24T15:54:45.659Z,2.13
2019-03-24T15:57:18.326Z,2.30
2019-03-24T15:59:51.226Z,2.17
2019-03-24T16:02:25.784Z,2.00
2019-03-24T16:04:58.200Z,2.37
2019-03-24T16:07:29.906Z,1.90
2019-03-24T16:10:01.316Z,2.60
2019-03-24T16:12:32.858Z,2.00
2019-03-24T16:15:04.603Z,2.30
2019-03-24T16:17:35.982Z,2.70
2019-03-24T16:20:07.494Z,2.40
2019-03-24T16:22:41.955Z,2.50
2019-03-24T16:25:17.494Z,2.40
2019-03-24T16:27:50.071Z,2.47
2019-03-24T16:30:21.407Z,2.50
2019-03-24T16:32:52.798Z,2.30
2019-03-24T16:35:27.591Z,2.40
2019-03-24T16:38:00.494Z,2.27
2019-03-24T16:40:46.663Z,2.40
2019-03-24T16:43:19.287Z,2.10
2019-03-24T16:45:50.726Z,2.40
2019-03-24T16:48:22.116Z,2.47
2019-03-24T16:50:53.517Z,2.20
2019-03-24T16:53:24.829Z,2.00
2019-03-24T16:55:57.784Z,1.77
2019-03-24T16:58:38.390Z,2.03
2019-03-24T17:01:35.365Z,1.90
2019-03-24T17:04:10.381Z,1.90
2019-03-24T17:06:41.726Z,2.10
2019-03-24T17:09:12.989Z,2.00
2019-03-24T17:11:44.359Z,1.90
2019-03-24T17:14:15.659Z,1.80
2019-03-24T17:16:46.958Z,1.73
2019-03-24T17:19:18.260Z,2.00
2019-03-24T17:21:50.397Z,1.57
2019-03-24T17:24:22.954Z,1.87
2019-03-24T17:26:58.485Z,1.83
2019-03-24T17:29:29.815Z,1.93
2019-03-24T17:32:04.209Z,2.07
2019-03-24T17:34:35.679Z,2.27
2019-03-24T17:37:06.986Z,2.03
2019-03-24T17:39:42.896Z,1.90
2019-03-24T17:42:15.946Z,1.87
2019-03-24T17:44:49.651Z,2.20
2019-03-24T17:47:21.253Z,1.90
2019-03-24T17:49:54.132Z,2.20
2019-03-24T17:52:25.566Z,1.87
2019-03-24T17:54:58.246Z,2.20
2019-03-24T17:57:29.594Z,2.30
2019-03-24T18:00:02.548Z,2.20
2019-03-24T18:02:34.778Z,2.80
2019-03-24T18:05:09.269Z,3.33
2019-03-24T18:07:40.627Z,2.50
2019-03-24T18:10:12.542Z,2.97
2019-03-24T18:12:44.364Z,2.53
2019-03-24T18:15:15.988Z,3.00
2019-03-24T18:17:47.530Z,3.00
2019-03-24T18:20:29.448Z,3.50
2019-03-24T18:23:00.783Z,3.23
2019-03-24T18:25:32.765Z,3.50
2019-03-24T18:28:04.240Z,2.63
2019-03-24T18:30:35.542Z,3.30
2019-03-24T18:33:06.976Z,3.27
2019-03-24T18:35:44.417Z,3.17
2019-03-24T18:38:15.802Z,3.37
2019-03-24T18:40:47.164Z,3.10
2019-03-24T18:43:18.967Z,2.90
2019-03-24T18:45:55.432Z,3.07
2019-03-24T18:48:26.935Z,3.23
2019-03-24T18:50:59.345Z,2.77
2019-03-24T18:53:34.055Z,3.30
2019-03-24T18:56:05.655Z,2.87
2019-03-24T18:58:37.025Z,2.77
2019-03-24T19:01:09.463Z,3.23
2019-03-24T19:03:42.254Z,3.10
2019-03-24T19:06:14.563Z,4.17
2019-03-24T19:08:45.959Z,2.90
2019-03-24T19:11:19.762Z,3.23
2019-03-24T19:13:51.347Z,3.00
2019-03-24T19:16:22.679Z,3.13
2019-03-24T19:18:54.043Z,4.07
2019-03-24T19:21:25.378Z,3.40
2019-03-24T19:23:57.908Z,2.60
2019-03-24T19:26:29.297Z,3.73
2019-03-24T19:29:00.653Z,4.10
2019-03-24T19:31:31.987Z,3.70
2019-03-24T19:34:03.302Z,4.00
2019-03-24T19:36:34.849Z,3.53
2019-03-24T19:39:08.993Z,3.53
2019-03-24T19:41:40.492Z,3.30
2019-03-24T19:44:11.898Z,4.20
2019-03-24T19:46:46.678Z,2.83
2019-03-24T19:49:17.967Z,3.60
2019-03-24T19:51:52.151Z,3.20
2019-03-24T19:54:24.591Z,4.07
2019-03-24T19:56:57.578Z,3.37
2019-03-24T19:59:31.260Z,3.23
2019-03-24T20:02:03.143Z,3.13
2019-03-24T20:04:38.260Z,3.07
2019-03-24T20:07:10.736Z,2.63
2019-03-24T20:09:42.091Z,2.53
2019-03-24T20:12:15.927Z,2.90
2019-03-24T20:14:50.660Z,2.90
2019-03-24T20:17:23.152Z,2.47
2019-03-24T20:19:58.506Z,3.13
2019-03-24T20:22:30.886Z,2.70
2019-03-24T20:25:09.988Z,2.60
2019-03-24T20:27:41.412Z,3.20
2019-03-24T20:30:14.074Z,2.50
2019-03-24T20:32:45.466Z,3.33
2019-03-24T20:35:16.893Z,2.80
2019-03-24T20:37:49.934Z,3.67
2019-03-24T20:40:23.959Z,2.97
2019-03-24T20:43:01.746Z,2.73
2019-03-24T20:45:35.015Z,2.70
2019-03-24T20:48:06.610Z,2.60
2019-03-24T20:50:38.039Z,2.50
2019-03-24T20:53:17.981Z,3.53
2019-03-24T20:55:43.655Z,2.77
2019-03-24T20:58:15.144Z,3.10
2019-03-24T21:00:47.752Z,2.87
2019-03-24T21:03:19.125Z,3.00
2019-03-24T21:05:50.518Z,2.63
2019-03-24T21:08:21.922Z,2.17
2019-03-24T21:10:56.173Z,2.40
2019-03-24T21:13:31.052Z,2.60
2019-03-24T21:16:03.971Z,2.57
2019-03-24T21:18:35.260Z,2.20
2019-03-24T21:21:06.568Z,2.67
2019-03-24T21:23:38.085Z,2.57
2019-03-24T21:26:11.166Z,2.60
2019-03-24T21:28:47.155Z,2.03
2019-03-24T21:31:18.441Z,2.30
2019-03-24T21:33:49.963Z,2.40
2019-03-24T21:36:21.319Z,2.00
2019-03-24T21:38:52.911Z,2.00
2019-03-24T21:41:24.302Z,2.33
2019-03-24T21:43:55.671Z,4.50
2019-03-24T21:46:27.323Z,2.20
2019-03-24T21:48:58.826Z,2.43
2019-03-24T21:51:30.699Z,3.00
2019-03-24T21:54:02.034Z,3.03
2019-03-24T21:56:33.892Z,2.90
2019-03-24T21:59:05.365Z,2.90
2019-03-24T22:01:39.440Z,3.30
2019-03-24T22:04:10.794Z,3.30
2019-03-24T22:06:45.199Z,3.37
2019-03-24T22:09:18.091Z,3.03
2019-03-24T22:11:49.393Z,3.03
2019-03-24T22:14:22.325Z,3.13
2019-03-24T22:16:53.934Z,3.03
2019-03-24T22:19:27.540Z,2.60
2019-03-24T22:22:02.306Z,2.70
2019-03-24T22:24:33.630Z,2.97
2019-03-24T22:27:07.986Z,2.27
2019-03-24T22:29:39.337Z,2.30
2019-03-24T22:32:12.645Z,2.97
2019-03-24T22:34:44.047Z,2.73
2019-03-24T22:37:16.242Z,2.30
2019-03-24T22:39:50.234Z,2.73
2019-03-24T22:42:21.705Z,2.50
2019-03-24T22:44:55.113Z,2.43
2019-03-24T22:47:26.590Z,2.63
2019-03-24T22:49:57.941Z,2.30
2019-03-24T22:52:29.488Z,2.63
2019-03-24T22:55:01.555Z,2.57
2019-03-24T22:57:33.380Z,2.50
2019-03-24T23:00:08.535Z,2.73
2019-03-24T23:02:42.470Z,2.30
2019-03-24T23:05:13.741Z,2.83
2019-03-24T23:07:45.750Z,2.80
2019-03-24T23:10:16.974Z,2.40
2019-03-24T23:12:48.293Z,3.07
2019-03-24T23:15:19.995Z,3.47
2019-03-24T23:17:51.563Z,3.80
2019-03-24T23:20:33.957Z,3.70
2019-03-24T23:23:05.645Z,3.80
2019-03-24T23:25:37.278Z,3.60
2019-03-24T23:28:09.795Z,3.17
2019-03-24T23:30:42.822Z,3.93
2019-03-24T23:33:14.366Z,3.40
2019-03-24T23:35:47.023Z,3.70
2019-03-24T23:38:18.359Z,3.80
2019-03-24T23:40:50.354Z,4.13
2019-03-24T23:43:22.170Z,3.90
2019-03-24T23:45:54.672Z,4.03
2019-03-24T23:48:27.518Z,4.07
2019-03-24T23:50:59.023Z,4.40
2019-03-24T23:53:31.901Z,4.50
2019-03-24T23:56:04.626Z,4.50
2019-03-24T23:58:41.155Z,4.20
